Flight Track Log - Related Links

Times and Time Zones

All times are in EDT time to prevent confusion due to time zone crossing. See the SWA3206 flight status page for this flight to view local times or setup timezone preferences in your user account.

Time Position Orientation Groundspeed Altitude Reporting Facility
EDT Latitude Longitude Course Direction KTS MPH feet Rate Location/Type
Wed 08:40:39 PM 33.4333 -112.0667 270° West 172 198 3,100  Level Phoenix TRACON
Wed 08:41:03 PM 33.4344 -112.0947 273° West 179 206 3,900 1,884 Climbing Albuquerque Center
Wed 08:42:05 PM 33.4372 -112.1753 272° West 224 258 5,800 2,419 Climbing Albuquerque Center
Wed 08:43:07 PM 33.5089 -112.1931 348° North 298 343 8,900 2,976 Climbing Albuquerque Center
Wed 08:44:08 PM 33.5761 -112.1408 33° Northeast 323 372 11,900 3,024 Climbing Albuquerque Center
Wed 08:45:10 PM 33.5908 -112.0250 81° East 351 404 15,100 2,952 Climbing Albuquerque Center
Wed 08:46:12 PM 33.6075 -111.9047 81° East 365 420 18,000 3,073 Climbing Albuquerque Center
Wed 08:47:13 PM 33.6275 -111.7517 81° East 386 444 21,400 2,634 Climbing Albuquerque Center
Wed 08:48:15 PM 33.6450 -111.6178 81° East 403 464 23,400 1,984 Climbing Albuquerque Center
Wed 08:49:17 PM 33.6628 -111.4747 81° East 427 491 25,500 1,951 Climbing Albuquerque Center
Wed 08:50:18 PM 33.6811 -111.3256 82° East 447 514 27,400 1,805 Climbing Albuquerque Center
Wed 08:51:20 PM 33.7206 -111.1767 72° East 469 540 29,200 1,548 Climbing Albuquerque Center
Wed 08:52:22 PM 33.7744 -111.0294 66° East 482 555 30,600 1,452 Climbing Albuquerque Center
Wed 08:53:24 PM 33.8392 -110.8425 67° East 500 575 32,200 1,463 Climbing Albuquerque Center
Wed 08:54:25 PM 33.8944 -110.6842 67° East 510 587 33,600 1,512 Climbing Albuquerque Center
Wed 08:55:27 PM 33.9508 -110.5253 67° East 516 594 35,300 1,463 Climbing Albuquerque Center
Wed 08:56:28 PM 34.0094 -110.3583 67° East 518 596 36,600 1,122 Climbing Albuquerque Center
Wed 08:57:30 PM 34.0642 -110.1969 68° East 521 600 37,600 1,161 Climbing Albuquerque Center
Wed 08:58:32 PM 34.1269 -110.0164 67° East 521 600 39,000 683 Climbing Albuquerque Center
Wed 08:59:33 PM 34.1786 -109.8658 67° East 514 592 39,000  Level Albuquerque Center
Wed 09:00:35 PM 34.2297 -109.7175 67° East 506 582 39,000  Level Albuquerque Center
Wed 09:01:37 PM 34.2894 -109.5436 67° East 503 579 39,000  Level Albuquerque Center
Wed 09:02:38 PM 34.3394 -109.3939 68° East 503 579 39,000  Level Albuquerque Center
Wed 09:03:40 PM 34.4000 -109.2183 67° East 505 581 39,000  Level Albuquerque Center
Wed 09:04:41 PM 34.4503 -109.0694 68° East 504 580 39,000  Level Albuquerque Center
Wed 09:05:43 PM 34.5092 -108.8961 68° East 501 577 39,000  Level Albuquerque Center
Wed 09:06:44 PM 34.5589 -108.7472 68° East 500 575 39,000  Level Albuquerque Center
Wed 09:07:46 PM 34.6086 -108.6011 68° East 496 571 39,000  Level Albuquerque Center
Wed 09:08:47 PM 34.6656 -108.4286 68° East 495 570 39,000  Level Albuquerque Center
Wed 09:09:49 PM 34.7164 -108.2736 68° East 493 567 39,000  Level Albuquerque Center
Wed 09:10:50 PM 34.7689 -108.1186 68° East 496 571 39,000  Level Albuquerque Center
Wed 09:11:52 PM 34.8189 -107.9625 69° East 495 570 39,000  Level Albuquerque Center
Wed 09:12:53 PM 34.8706 -107.8067 68° East 497 572 39,000  Level Albuquerque Center
Wed 09:13:55 PM 34.9214 -107.6497 68° East 497 572 39,000  Level Albuquerque Center
Wed 09:14:57 PM 34.9711 -107.4922 69° East 498 573 39,000  Level Albuquerque Center
Wed 09:15:58 PM 35.0211 -107.3356 69° East 496 571 39,000  Level Albuquerque Center
Wed 09:16:59 PM 35.0781 -107.1569 69° East 502 578 39,000  Level Albuquerque Center
Wed 09:18:00 PM 35.1339 -106.9808 69° East 499 574 39,000  Level Albuquerque Center
Wed 09:19:02 PM 35.1811 -106.8308 69° East 496 571 39,000  Level Albuquerque Center
Wed 09:20:03 PM 35.2383 -106.6553 68° East 497 572 39,000  Level Albuquerque Center
Wed 09:21:05 PM 35.2844 -106.5028 70° East 494 568 39,000  Level Albuquerque Center
Wed 09:22:06 PM 35.3311 -106.3467 70° East 489 563 39,000  Level Albuquerque Center
Wed 09:23:07 PM 35.3811 -106.1933 68° East 486 559 39,000  Level Albuquerque Center
Wed 09:24:09 PM 35.4267 -106.0381 70° East 484 557 39,000  Level Albuquerque Center
Wed 09:25:10 PM 35.4742 -105.8833 69° East 485 558 39,000  Level Albuquerque Center
Wed 09:26:12 PM 35.5219 -105.7258 70° East 485 558 39,000  Level Albuquerque Center
Wed 09:27:13 PM 35.5686 -105.5697 70° East 483 556 39,000  Level Albuquerque Center
Wed 09:28:15 PM 35.6131 -105.4164 70° East 476 548 39,000  Level Albuquerque Center
Wed 09:29:16 PM 35.6692 -105.2319 69° East 484 557 39,000  Level Albuquerque Center
Wed 09:30:17 PM 35.7122 -105.0789 71° East 474 545 39,000  Level Albuquerque Center
Wed 09:31:19 PM 35.7583 -104.9225 70° East 478 550 39,000  Level Albuquerque Center
Wed 09:32:20 PM 35.8050 -104.7658 70° East 481 554 39,000  Level Albuquerque Center
Wed 09:33:22 PM 35.8508 -104.6081 70° East 482 555 39,000  Level Albuquerque Center
Wed 09:34:23 PM 35.8969 -104.4503 70° East 483 556 39,000  Level Albuquerque Center
Wed 09:35:25 PM 35.9431 -104.2931 70° East 482 555 39,000  Level Albuquerque Center
Wed 09:36:26 PM 35.9878 -104.1350 71° East 482 555 39,000  Level Albuquerque Center
Wed 09:37:28 PM 36.0322 -103.9789 71° East 479 551 39,000  Level Albuquerque Center
Wed 09:38:29 PM 36.0767 -103.8208 71° East 479 551 39,000  Level Albuquerque Center
Wed 09:39:30 PM 36.1206 -103.6667 71° East 475 547 39,000  Level Albuquerque Center
Wed 09:40:32 PM 36.1647 -103.5150 70° East 467 537 39,000  Level Albuquerque Center
Wed 09:41:33 PM 36.2086 -103.3603 71° East 469 540 39,000  Level Albuquerque Center
Wed 09:42:35 PM 36.2500 -103.2058 72° East 469 540 39,000  Level Albuquerque Center
Wed 09:43:36 PM 36.2914 -103.0506 72° East 470 541 39,000  Level Albuquerque Center
Wed 09:44:38 PM 36.3336 -102.8956 71° East 469 540 39,000  Level Albuquerque Center
Wed 09:45:39 PM 36.3761 -102.7417 71° East 465 535 39,000  Level Albuquerque Center
Wed 09:46:41 PM 36.4164 -102.5897 72° East 463 533 39,000  Level Albuquerque Center
Wed 09:47:42 PM 36.4661 -102.4058 71° East 466 536 39,000  Level Albuquerque Center
Wed 09:48:44 PM 36.5086 -102.2511 71° East 470 541 39,000  Level Albuquerque Center
Wed 09:49:45 PM 36.5492 -102.0964 72° East 471 542 39,000  Level Albuquerque Center
Wed 09:50:47 PM 36.5892 -101.9397 72° East 473 544 39,000  Level Albuquerque Center
Wed 09:51:48 PM 36.6122 -101.7722 80° East 472 543 39,000  Level Albuquerque Center
Wed 09:52:50 PM 36.6272 -101.6167 83° East 472 543 39,000  Level Albuquerque Center
Wed 09:53:51 PM 36.6439 -101.4375 83° East 471 542 39,000  Level Albuquerque Center
Wed 09:54:50 PM 36.6578 -101.2839 84° East 469 540 39,000  Level Kansas City Center
Wed 09:55:51 PM 36.6706 -101.1297 84° East 470 541 39,000  Level Kansas City Center
Wed 09:56:52 PM 36.6875 -100.9536 83° East 465 535 39,000  Level Kansas City Center
Wed 09:57:53 PM 36.7022 -100.8033 83° East 460 529 39,000  Level Kansas City Center
Wed 09:58:54 PM 36.7169 -100.6531 83° East 459 528 39,000  Level Kansas City Center
Wed 09:59:55 PM 36.7353 -100.4819 82° East 453 521 39,000  Level Kansas City Center
Wed 10:00:56 PM 36.7489 -100.3339 83° East 452 520 39,000  Level Kansas City Center
Wed 10:01:57 PM 36.7675 -100.1628 82° East 449 517 39,000  Level Kansas City Center
Wed 10:02:58 PM 36.7800 -100.0369 83° East 445 512 39,000  Level Kansas City Center
Wed 10:03:59 PM 36.7969 -99.8842 82° East 443 510 39,000  Level Kansas City Center
Wed 10:05:00 PM 36.8169 -99.7011 82° East 440 506 39,000  Level Kansas City Center
Wed 10:06:01 PM 36.8339 -99.5481 82° East 442 509 39,000  Level Kansas City Center
Wed 10:07:02 PM 36.8522 -99.3969 81° East 440 506 39,000  Level Kansas City Center
Wed 10:08:03 PM 36.8417 -99.2572 95° East 423 487 39,000  Level Kansas City Center
Wed 10:09:04 PM 36.7847 -99.1258 118° Southeast 423 487 39,000  Level Kansas City Center
Wed 10:10:05 PM 36.7281 -98.9869 117° Southeast 454 522 39,000  Level Kansas City Center
Wed 10:11:06 PM 36.6706 -98.8583 119° Southeast 437 503 39,000  Level Kansas City Center
Wed 10:12:07 PM 36.6100 -98.7189 118° Southeast 450 518 39,000  Level Kansas City Center
Wed 10:13:08 PM 36.5544 -98.5894 118° Southeast 433 498 39,000  Level Kansas City Center
Wed 10:14:09 PM 36.4964 -98.4581 119° Southeast 430 495 39,000  Level Kansas City Center
Wed 10:15:10 PM 36.4383 -98.3242 118° Southeast 433 498 39,000  Level Kansas City Center
Wed 10:16:11 PM 36.4331 -98.1661 92° East 450 518 39,000  Level Kansas City Center
Wed 10:17:12 PM 36.4533 -98.0058 81° East 461 531 39,000  Level Kansas City Center
Wed 10:18:13 PM 36.5056 -97.8531 67° East 472 543 39,000  Level Kansas City Center
Wed 10:19:14 PM 36.5497 -97.6992 70° East 475 547 39,000  Level Kansas City Center
Wed 10:20:15 PM 36.5906 -97.5506 71° East 474 545 39,000  Level Kansas City Center
Wed 10:21:16 PM 36.6369 -97.3892 70° East 474 545 39,000  Level Kansas City Center
Wed 10:22:17 PM 36.6814 -97.2333 70° East 476 548 39,000  Level Kansas City Center
Wed 10:23:18 PM 36.7311 -97.0561 71° East 479 551 39,000 492 Level Kansas City Center
Wed 10:24:19 PM 36.7775 -96.8972 70° East 483 556 40,000 492 Climbing Kansas City Center
Wed 10:25:20 PM 36.8203 -96.7392 71° East 482 555 40,000  Level Kansas City Center
Wed 10:26:21 PM 36.8644 -96.5844 70° East 476 548 40,000  Level Kansas City Center
Wed 10:27:22 PM 36.9069 -96.4281 71° East 475 547 40,000  Level Kansas City Center
Wed 10:28:23 PM 36.9497 -96.2697 71° East 476 548 40,000  Level Kansas City Center
Wed 10:29:24 PM 36.9939 -96.1100 71° East 478 550 40,000 295 Level Kansas City Center
Wed 10:30:25 PM 37.0383 -95.9464 71° East 486 559 40,600 492 Climbing Kansas City Center
Wed 10:31:26 PM 37.0828 -95.7822 71° East 493 567 41,000 197 Climbing Kansas City Center
Wed 10:32:27 PM 37.1256 -95.6192 72° East 492 566 41,000  Level Kansas City Center
Wed 10:33:28 PM 37.1683 -95.4594 71° East 485 558 41,000  Level Kansas City Center
Wed 10:34:29 PM 37.2117 -95.3033 71° East 476 548 41,000  Level Kansas City Center
Wed 10:35:30 PM 37.2536 -95.1481 71° East 471 542 41,000  Level Kansas City Center
Wed 10:36:31 PM 37.2953 -94.9886 72° East 474 545 41,000  Level Kansas City Center
Wed 10:37:32 PM 37.3450 -94.7967 72° East 478 550 41,000  Level Kansas City Center
Wed 10:38:33 PM 37.3847 -94.6372 73° East 477 549 41,000  Level Kansas City Center
Wed 10:39:34 PM 37.4267 -94.4797 71° East 474 545 41,000  Level Kansas City Center
Wed 10:40:35 PM 37.4661 -94.3208 73° East 475 547 41,000  Level Kansas City Center
Wed 10:41:36 PM 37.5042 -94.1628 73° East 471 542 41,000  Level Kansas City Center
Wed 10:42:37 PM 37.5450 -94.0047 72° East 463 533 41,000  Level Kansas City Center
Wed 10:43:38 PM 37.5844 -93.8506 72° East 462 532 41,000  Level Kansas City Center
Wed 10:44:39 PM 37.6222 -93.6978 73° East 458 527 41,000  Level Kansas City Center
Wed 10:45:40 PM 37.6611 -93.5433 72° East 460 529 41,000  Level Kansas City Center
Wed 10:46:41 PM 37.7003 -93.3881 72° East 462 532 41,000  Level Kansas City Center
Wed 10:47:42 PM 37.7383 -93.2306 73° East 466 536 41,000  Level Kansas City Center
Wed 10:48:43 PM 37.7767 -93.0739 73° East 466 536 41,000  Level Kansas City Center
Wed 10:49:44 PM 37.8147 -92.9156 73° East 469 540 41,000  Level Kansas City Center
Wed 10:50:45 PM 37.8569 -92.7439 73° East 467 537 41,000  Level Kansas City Center
Wed 10:51:46 PM 37.8944 -92.5856 73° East 470 541 41,000  Level Kansas City Center
Wed 10:52:47 PM 37.9319 -92.4267 73° East 471 542 41,000  Level Kansas City Center
Wed 10:53:48 PM 37.9694 -92.2656 74° East 475 547 41,000  Level Kansas City Center
Wed 10:54:48 PM 38.0056 -92.1044 74° East 476 548 41,000  Level Kansas City Center
Wed 10:55:49 PM 38.0442 -91.9417 73° East 473 544 41,000  Level Kansas City Center
Wed 10:56:50 PM 38.0819 -91.7817 73° East 473 544 41,000  Level Kansas City Center
Wed 10:57:51 PM 38.1183 -91.6214 74° East 473 544 41,000  Level Kansas City Center
Wed 10:58:52 PM 38.1542 -91.4636 74° East 467 537 41,000  Level Kansas City Center
Wed 10:59:54 PM 38.1881 -91.3117 74° East 468 539 41,000  Level Kansas City Center
Wed 11:00:55 PM 38.2242 -91.1539 74° East 468 539 41,000  Level Kansas City Center
Wed 11:01:56 PM 38.2667 -90.9617 74° East 472 543 41,000  Level Kansas City Center
Wed 11:02:57 PM 38.3006 -90.8000 75° East 475 547 41,000  Level Kansas City Center
Wed 11:03:57 PM 38.3364 -90.6378 74° East 479 551 41,000  Level Kansas City Center
Wed 11:04:58 PM 38.3706 -90.4758 75° East 480 552 41,000  Level Kansas City Center
Wed 11:05:59 PM 38.4058 -90.3142 74° East 479 551 41,000  Level Kansas City Center
Wed 11:07:00 PM 38.4403 -90.1533 75° East 477 549 41,000  Level Kansas City Center
Wed 11:08:01 PM 38.4744 -89.9958 74° East 467 537 41,000  Level Kansas City Center
Wed 11:09:02 PM 38.5194 -89.8411 70° East 467 537 41,000  Level Kansas City Center
Wed 11:10:03 PM 38.5764 -89.6581 68° East 474 545 41,000  Level Kansas City Center
Wed 11:11:04 PM 38.6222 -89.5033 69° East 470 541 41,000  Level Kansas City Center
Wed 11:12:05 PM 38.6711 -89.3375 69° East 464 534 41,000  Level Kansas City Center
Wed 11:13:06 PM 38.7164 -89.1831 69° East 466 536 41,000  Level Kansas City Center
Wed 11:14:07 PM 38.7614 -89.0294 69° East 463 533 41,000  Level Kansas City Center
Wed 11:15:08 PM 38.8067 -88.8839 68° East 468 539 41,000  Level Kansas City Center
Wed 11:16:09 PM 38.8511 -88.7286 70° East 466 536 41,000  Level Kansas City Center
Wed 11:17:10 PM 38.9011 -88.5503 70° East 470 541 41,000  Level Kansas City Center
Wed 11:18:11 PM 38.9392 -88.3883 73° East 471 542 41,000  Level Kansas City Center
Wed 11:18:54 PM 38.9533 -88.2911 79° East 474 545 41,000  Level Indianapolis Center
Wed 11:19:56 PM 38.9831 -88.1261 77° East 471 542 41,000  Level Indianapolis Center
Wed 11:20:57 PM 39.0119 -87.9608 77° East 471 542 41,000  Level Indianapolis Center
Wed 11:21:58 PM 39.0403 -87.7939 78° East 475 547 41,000  Level Indianapolis Center
Wed 11:23:00 PM 39.0742 -87.5967 77° East 468 539 41,000  Level Indianapolis Center
Wed 11:24:01 PM 39.1017 -87.4356 78° East 461 531 41,000  Level Indianapolis Center
Wed 11:25:02 PM 39.1289 -87.2708 78° East 456 525 41,000  Level Indianapolis Center
Wed 11:26:04 PM 39.1561 -87.1117 78° East 456 525 41,000  Level Indianapolis Center
Wed 11:27:05 PM 39.1814 -86.9558 78° East 451 519 41,000  Level Indianapolis Center
Wed 11:28:06 PM 39.2078 -86.7981 78° East 452 520 41,000  Level Indianapolis Center
Wed 11:29:08 PM 39.2339 -86.6381 78° East 459 528 41,000  Level Indianapolis Center
Wed 11:30:09 PM 39.2583 -86.4781 79° East 460 529 41,000  Level Indianapolis Center
Wed 11:31:10 PM 39.2836 -86.3172 78° East 463 533 41,000  Level Indianapolis Center
Wed 11:32:12 PM 39.3147 -86.1239 78° East 465 535 41,000  Level Indianapolis Center
Wed 11:33:13 PM 39.3497 -85.9669 74° East 464 534 41,000  Level Indianapolis Center
Wed 11:34:14 PM 39.3911 -85.8117 71° East 462 532 41,000  Level Indianapolis Center
Wed 11:35:15 PM 39.4333 -85.6586 70° East 457 526 41,000  Level Indianapolis Center
Wed 11:36:17 PM 39.4756 -85.5058 70° East 456 525 41,000  Level Indianapolis Center
Wed 11:37:18 PM 39.5064 -85.3469 76° East 458 527 41,000  Level Indianapolis Center
Wed 11:38:19 PM 39.5278 -85.1847 80° East 461 531 41,000  Level Indianapolis Center
Wed 11:39:20 PM 39.5483 -85.0222 81° East 460 529 41,000  Level Indianapolis Center
Wed 11:40:21 PM 39.5722 -84.8428 80° East 461 531 41,000  Level Indianapolis Center
Wed 11:41:22 PM 39.5925 -84.6781 81° East 460 529 41,000  Level Indianapolis Center
Wed 11:42:24 PM 39.6131 -84.5131 81° East 461 531 41,000  Level Indianapolis Center
Wed 11:43:25 PM 39.6344 -84.3506 80° East 456 525 41,000  Level Indianapolis Center
Wed 11:44:26 PM 39.6544 -84.1869 81° East 456 525 41,000  Level Indianapolis Center
Wed 11:45:27 PM 39.6747 -84.0228 81° East 458 527 41,000  Level Indianapolis Center
Wed 11:46:28 PM 39.6972 -83.8306 81° East 458 527 41,000  Level Indianapolis Center
Wed 11:47:29 PM 39.7158 -83.6650 82° East 461 531 41,000  Level Indianapolis Center
Wed 11:48:30 PM 39.7267 -83.4983 85° East 468 539 41,000  Level Indianapolis Center
Wed 11:49:31 PM 39.7369 -83.3325 85° East 468 539 41,000  Level Indianapolis Center
Wed 11:50:32 PM 39.7450 -83.1642 86° East 467 537 41,000  Level Indianapolis Center
Wed 11:51:33 PM 39.7536 -82.9956 86° East 467 537 41,000  Level Indianapolis Center
Wed 11:52:35 PM 39.7622 -82.8250 86° East 470 541 41,000  Level Indianapolis Center
Wed 11:53:36 PM 39.7697 -82.6547 87° East 470 541 41,000  Level Indianapolis Center
Wed 11:54:37 PM 39.7778 -82.4853 86° East 467 537 41,000  Level Indianapolis Center
Wed 11:55:37 PM 39.7847 -82.3156 87° East 468 539 41,000  Level Indianapolis Center
Wed 11:56:38 PM 39.7922 -82.1458 87° East 468 539 41,000  Level Indianapolis Center
Wed 11:57:39 PM 39.7989 -81.9761 87° East 468 539 41,000  Level Indianapolis Center
Wed 11:58:40 PM 39.7969 -81.8058 91° East 469 540 41,000  Level Indianapolis Center
Wed 11:59:41 PM 39.7889 -81.6361 93° East 466 536 41,000  Level Indianapolis Center
Thu 12:00:33 AM 39.7864 -81.4828 91° East 460 529 41,000  Level Cleveland Center
Thu 12:01:33 AM 39.7792 -81.3178 93° East 460 529 41,000  Level Cleveland Center
Thu 12:02:33 AM 39.7717 -81.1583 93° East 454 522 41,000  Level Cleveland Center
Thu 12:03:33 AM 39.7642 -80.9964 93° East 454 522 41,000  Level Cleveland Center
Thu 12:04:33 AM 39.7583 -80.8369 93° East 449 517 41,000  Level Cleveland Center
Thu 12:05:33 AM 39.7525 -80.6694 93° East 449 517 41,000  Level Cleveland Center
Thu 12:06:33 AM 39.7419 -80.5075 95° East 449 517 41,000  Level Cleveland Center
Thu 12:07:33 AM 39.7356 -80.3428 93° East 454 522 41,000 -736 Level Cleveland Center
Thu 12:09:16 AM 39.7169 -80.0456 95° East 459 528 39,000 -1,699 Descending Washington Center
Thu 12:10:19 AM 39.7103 -79.8833 93° East 459 528 36,300 -2,537 Descending Washington Center
Thu 12:11:19 AM 39.7014 -79.7208 94° East 459 528 33,800 -2,370 Descending Washington Center
Thu 12:12:18 AM 39.6936 -79.5775 94° East 459 528 31,600 -2,200 Descending Washington Center
Thu 12:13:19 AM 39.6842 -79.4231 94° East 446 513 29,400 -2,118 Descending Washington Center
Thu 12:14:17 AM 39.6761 -79.2772 94° East 425 489 27,400 -2,017 Descending Washington Center
Thu 12:15:18 AM 39.6658 -79.1339 95° East 402 463 25,400 -1,200 Descending Washington Center
Thu 12:16:17 AM 39.6447 -79.0006 102° East 389 448 25,000 -203 Descending Washington Center
Thu 12:17:16 AM 39.6114 -78.8508 106° East 387 445 25,000 -246 Level Washington Center
Thu 12:18:19 AM 39.5667 -78.7250 115° Southeast 382 440 24,500 -1,400 Descending Washington Center
Thu 12:19:16 AM 39.5219 -78.5994 115° Southeast 382 440 22,200 -2,250 Descending Washington Center
Thu 12:20:19 AM 39.4769 -78.4764 115° Southeast 382 440 20,000 -2,083 Descending Washington Center
Thu 12:21:17 AM 39.4403 -78.3514 111° Southeast 382 440 18,000 -2,017 Descending Washington Center
Thu 12:22:18 AM 39.4286 -78.2247 97° East 365 420 16,000 -1,513 Descending Washington Center
Thu 12:23:16 AM 39.4125 -78.1031 100° East 354 407 15,000 -496 Descending Washington Center
Thu 12:24:19 AM 39.4000 -78.0008 99° East 344 396 15,000 -98 Level Washington Center
Thu 12:25:19 AM 39.3878 -77.8822 98° East 331 381 14,800 -650 Descending Washington Center
Thu 12:26:19 AM 39.3939 -77.7669 86° East 331 381 13,700 -1,068 Descending Washington Center
Thu 12:27:17 AM 39.4086 -77.6517 81° East 326 375 12,700 -1,017 Descending Washington Center
Thu 12:28:17 AM 39.4228 -77.5419 80° East 326 375 11,700 -857 Descending Washington Center
Thu 12:29:16 AM 39.4372 -77.4294 81° East 321 369 11,000 -500 Descending Washington Center
Thu 12:30:17 AM 39.4450 -77.3275 84° East 302 348 10,700 -684 Descending Washington Center
Thu 12:30:35 AM 39.4333 -77.3000 119° Southeast 298 343 10,100 -1,231 Descending Potomac TRACON
Thu 12:31:35 AM 39.4333 -77.1833 90° East 291 335 9,100 -1,091 Descending Potomac TRACON
Thu 12:32:36 AM 39.4167 -77.1000 104° East 286 329 7,900 -1,190 Descending Potomac TRACON
Thu 12:33:36 AM 39.4000 -77.0000 102° East 278 320 6,700 -1,143 Descending Potomac TRACON
Thu 12:34:42 AM 39.3833 -76.9000 102° East 269 310 5,500 -1,150 Descending Potomac TRACON
Thu 12:35:36 AM 39.3833 -76.8167 90° East 262 302 4,400 -1,096 Descending Potomac TRACON
Thu 12:36:37 AM 39.3667 -76.7167 102° East 260 299 3,400 -992 Descending Potomac TRACON
Thu 12:37:37 AM 39.3333 -76.6333 117° Southeast 256 295 2,400 -500 Descending Potomac TRACON
Thu 12:38:37 AM 39.3167 -76.5500 104° East 242 278 2,400 -150 Level Potomac TRACON
Thu 12:39:37 AM 39.2833 -76.5167 142° Southeast 219 252 2,100 -200 Descending Potomac TRACON
Thu 12:40:37 AM 39.2333 -76.4833 153° Southeast 212 244 2,000 -99 Descending Potomac TRACON
Thu 12:41:38 AM 39.1833 -76.4667 166° South 219 252 1,900  Descending Potomac TRACON
Thu 12:42:38 AM 39.1667 -76.5167 247° West 178 205 2,000 -300 Climbing Potomac TRACON
Thu 12:43:38 AM 39.1667 -76.5667 270° West 153 176 1,300 -700 Descending Potomac TRACON
Thu 12:44:38 AM 39.1667 -76.6167 270° West 139 160 600 -450 Descending Potomac TRACON
Thu 12:45:38 AM 39.1667 -76.6667 270° West 133 153 400 -200 Descending Potomac TRACON
Thu 12:47:00 AM 39.1754 -76.6683 225° Southwest  Level Estimated

Login

Don't have an account? Register now (free) for customized features, flight alerts, and more!